.
WxDataArchive / Data Records for 2008-08-01
2008-07-31 August 2008 2008-08-02

Data Records for Friday, 01 August 2008

Time	Temp	Chill	HIndex	Humid	Dewpt	 Wind 	HiWind	WindDir	Rain 	Barom 
-----	----	-----	------	-----	-----	------	------	-------	-----	----- 
00:00	73.2	73.2	73.2	77	65.5	0	0	---	0.00	29.722 
00:05	73.0	73.0	73.0	77	65.3	0	1	292	0.00	29.721 
00:10	72.8	72.8	72.8	78	65.5	0	1	292	0.00	29.725 
00:15	72.8	72.8	72.8	79	65.9	0	1	292	0.00	29.728 
00:20	72.7	72.7	72.7	79	65.8	0	1	292	0.00	29.726 
00:25	72.7	72.7	72.7	79	65.8	0	1	292	0.00	29.726 
00:30	72.5	72.5	72.5	80	66.0	0	1	292	0.00	29.725 
00:35	72.3	72.3	72.3	80	65.8	0	1	292	0.00	29.727 
00:40	72.3	72.3	72.3	80	65.8	0	1	292	0.00	29.729 
00:45	72.1	72.1	72.1	81	65.9	0	1	292	0.00	29.728 
00:50	72.1	72.1	72.1	81	65.9	0	1	292	0.00	29.730 
00:55	72.0	72.0	72.0	81	65.8	0	1	292	0.00	29.728 
01:00	72.0	72.0	72.0	81	65.8	0	2	292	0.00	29.731 
01:05	71.8	71.8	71.8	82	66.0	0	1	292	0.00	29.731 
01:10	71.6	71.6	71.6	82	65.8	0	1	292	0.00	29.733 
01:15	71.5	71.5	71.5	83	66.1	0	1	292	0.00	29.735 
01:20	71.3	71.3	71.3	83	65.9	0	1	292	0.00	29.735 
01:25	71.1	71.1	71.1	84	66.0	0	1	292	0.00	29.736 
01:30	70.9	70.9	70.9	84	65.8	0	1	292	0.00	29.735 
01:35	70.8	70.8	70.8	84	65.7	0	1	292	0.00	29.736 
01:40	70.6	70.6	70.6	85	65.9	0	1	292	0.00	29.736 
01:45	70.6	70.6	70.6	85	65.9	0	1	292	0.00	29.734 
01:50	70.4	70.4	70.4	86	66.0	0	1	292	0.00	29.736 
01:55	70.3	70.3	70.3	86	65.9	0	1	292	0.00	29.736 
02:00	70.1	70.1	70.1	86	65.7	0	0	---	0.00	29.737 
02:05	70.1	70.1	70.1	87	66.0	0	0	---	0.00	29.736 
02:10	69.9	69.9	69.9	87	65.8	0	0	---	0.00	29.734 
02:15	69.8	69.8	69.8	87	65.7	0	1	292	0.00	29.735 
02:20	69.6	69.6	69.6	88	65.9	0	0	---	0.00	29.735 
02:25	69.6	69.6	69.6	88	65.9	0	0	---	0.00	29.736 
02:30	69.4	69.4	69.4	88	65.7	0	1	292	0.00	29.738 
02:35	69.3	69.3	69.3	88	65.6	0	1	292	0.00	29.738 
02:40	69.1	69.1	69.1	89	65.7	0	0	---	0.00	29.738 
02:45	69.1	69.1	69.1	89	65.7	0	0	---	0.00	29.737 
02:50	69.1	69.1	69.1	89	65.7	0	0	---	0.00	29.738 
02:55	68.9	68.9	68.9	89	65.5	0	1	292	0.00	29.738 
03:00	68.9	68.9	68.9	90	65.8	0	0	---	0.00	29.738 
03:05	68.8	68.8	68.8	90	65.7	0	0	---	0.00	29.736 
03:10	68.6	68.6	68.6	90	65.5	0	0	---	0.00	29.736 
03:15	68.6	68.6	68.6	90	65.5	0	0	---	0.00	29.736 
03:20	68.4	68.4	68.4	90	65.3	0	0	---	0.00	29.737 
03:25	68.3	68.3	68.3	91	65.6	0	0	---	0.00	29.736 
03:30	68.3	68.3	68.3	91	65.6	0	0	---	0.00	29.737 
03:35	68.1	68.1	68.1	91	65.4	0	0	---	0.00	29.738 
03:40	68.1	68.1	68.1	92	65.7	0	1	292	0.00	29.740 
03:45	68.1	68.1	68.1	92	65.7	0	0	---	0.00	29.741 
03:50	68.1	68.1	68.1	92	65.7	0	0	---	0.00	29.742 
03:55	68.1	68.1	68.1	92	65.7	0	0	---	0.00	29.746 
04:00	68.1	68.1	68.1	92	65.7	0	0	---	0.00	29.743 
04:05	68.3	68.3	68.3	92	65.9	0	0	---	0.00	29.746 
04:10	68.3	68.3	68.3	92	65.9	0	0	---	0.00	29.748 
04:15	68.3	68.3	68.3	92	65.9	0	0	---	0.00	29.747 
04:20	68.1	68.1	68.1	92	65.7	0	0	---	0.00	29.746 
04:25	68.1	68.1	68.1	92	65.7	0	0	---	0.00	29.744 
04:30	67.9	67.9	67.9	92	65.5	0	0	---	0.00	29.744 
04:35	67.8	67.8	67.8	92	65.4	0	0	---	0.00	29.741 
04:40	67.8	67.8	67.8	93	65.7	0	0	---	0.00	29.746 
04:45	67.8	67.8	67.8	93	65.7	0	1	292	0.00	29.743 
04:50	67.8	67.8	67.8	93	65.7	0	0	---	0.00	29.745 
04:55	67.8	67.8	67.8	93	65.7	0	0	---	0.00	29.742 
05:00	67.8	67.8	67.8	93	65.7	0	0	---	0.00	29.740 
05:05	67.6	67.6	67.6	93	65.5	0	0	---	0.00	29.746 
05:10	67.6	67.6	67.6	93	65.5	0	0	---	0.00	29.748 
05:15	67.4	67.4	67.4	93	65.3	0	0	---	0.00	29.749 
05:20	67.4	67.4	67.4	93	65.3	0	0	---	0.00	29.747 
05:25	67.3	67.3	67.3	93	65.2	0	0	---	0.00	29.742 
05:30	67.3	67.3	67.3	93	65.2	0	0	---	0.00	29.741 
05:35	67.4	67.4	67.4	94	65.6	0	0	---	0.00	29.741 
05:40	67.3	67.3	67.3	94	65.5	0	0	---	0.00	29.742 
05:45	67.3	67.3	67.3	94	65.5	0	0	---	0.00	29.741 
05:50	67.3	67.3	67.3	94	65.5	0	0	---	0.00	29.740 
05:55	67.3	67.3	67.3	94	65.5	0	0	---	0.00	29.741 
06:00	67.4	67.4	67.4	94	65.6	0	0	---	0.00	29.740 
06:05	67.4	67.4	67.4	94	65.6	0	0	---	0.00	29.744 
06:10	67.6	67.6	67.6	95	66.1	0	0	---	0.00	29.742 
06:15	67.8	67.8	67.8	95	66.3	0	0	---	0.00	29.742 
06:20	68.1	68.1	68.1	95	66.6	0	0	---	0.00	29.742 
06:25	68.3	68.3	68.3	95	66.8	0	0	---	0.00	29.744 
06:30	68.6	68.6	68.6	95	67.1	0	0	---	0.00	29.747 
06:35	68.8	68.8	68.8	95	67.3	0	0	---	0.00	29.747 
06:40	69.1	69.1	69.1	95	67.6	0	1	292	0.00	29.750 
06:45	69.4	69.4	69.4	95	67.9	0	1	292	0.00	29.753 
06:50	69.8	69.8	69.8	94	68.0	0	1	292	0.00	29.750 
06:55	70.1	70.1	70.1	94	68.3	0	1	292	0.00	29.753 
07:00	70.3	70.3	70.3	94	68.5	0	1	292	0.00	29.752 
07:05	70.6	70.6	70.6	93	68.5	0	1	292	0.00	29.757 
07:10	70.9	70.9	70.9	92	68.5	0	0	---	0.00	29.755 
07:15	71.1	71.1	71.1	92	68.7	0	1	292	0.00	29.757 
07:20	71.5	71.5	71.5	91	68.7	0	1	292	0.00	29.762 
07:25	71.6	71.6	71.6	90	68.5	0	1	292	0.00	29.767 
07:30	71.8	71.8	71.8	89	68.4	0	2	292	0.00	29.764 
07:35	72.0	72.0	72.0	89	68.6	0	0	---	0.00	29.766 
07:40	72.3	72.3	72.3	88	68.5	0	1	292	0.00	29.764 
07:45	72.5	72.5	72.5	87	68.4	0	0	---	0.00	29.762 
07:50	73.0	73.0	73.0	87	68.9	0	1	292	0.00	29.765 
07:55	73.2	73.2	73.2	86	68.7	0	1	292	0.00	29.765 
08:00	73.3	73.3	73.3	85	68.5	0	1	292	0.00	29.763 
08:05	73.3	73.3	73.3	85	68.5	0	1	292	0.00	29.763 
08:10	73.5	73.5	73.5	85	68.7	0	1	292	0.00	29.767 
08:15	73.7	73.7	73.7	85	68.9	0	1	292	0.00	29.755 
08:20	73.9	73.9	73.9	85	69.1	0	1	292	0.00	29.755 
08:25	74.2	74.2	74.2	85	69.4	0	2	292	0.00	29.754 
08:30	74.7	74.7	74.7	84	69.5	0	1	292	0.00	29.752 
08:35	75.4	75.4	75.9	82	69.5	0	2	292	0.00	29.753 
08:40	76.0	76.0	76.8	82	70.1	0	1	292	0.00	29.750 
08:45	76.3	76.3	77.4	81	70.0	0	1	292	0.00	29.752 
08:50	76.3	76.3	77.5	80	69.7	0	1	292	0.00	29.752 
08:55	76.3	76.3	77.5	80	69.7	0	1	292	0.00	29.753 
09:00	76.5	76.5	77.8	80	69.9	0	1	292	0.00	29.752 
09:05	76.5	76.5	77.9	78	69.1	0	1	292	0.00	29.753 
09:10	76.5	76.5	77.8	79	69.5	0	1	292	0.00	29.752 
09:15	76.8	76.8	78.3	79	69.8	0	1	292	0.00	29.753 
09:20	77.2	77.2	79.0	77	69.4	0	2	292	0.00	29.754 
09:25	77.4	77.4	79.3	77	69.6	0	1	292	0.00	29.759 
09:30	77.7	77.7	79.7	77	69.9	0	1	292	0.00	29.759 
09:35	78.1	78.1	80.4	76	69.9	0	1	292	0.00	29.756 
09:40	78.3	78.3	80.6	75	69.7	0	1	292	0.00	29.754 
09:45	78.5	78.5	80.9	74	69.5	0	1	292	0.00	29.751 
09:50	78.8	78.8	81.5	75	70.2	0	2	292	0.00	29.751 
09:55	79.0	79.0	81.7	74	70.0	0	3	248	0.00	29.754 
10:00	79.8	79.8	83.0	73	70.4	1	2	248	0.00	29.754 
10:05	79.8	79.8	83.0	73	70.4	1	2	248	0.00	29.760 
10:10	79.9	79.9	83.3	74	70.8	0	3	248	0.00	29.758 
10:15	80.1	80.1	83.5	73	70.6	1	3	248	0.00	29.761 
10:20	80.1	80.1	83.6	74	71.0	1	3	225	0.00	29.760 
10:25	80.1	80.1	83.5	73	70.6	1	4	248	0.00	29.759 
10:30	80.7	80.7	84.9	75	72.0	0	2	248	0.00	29.755 
10:35	81.2	81.2	85.5	73	71.7	1	2	248	0.00	29.755 
10:40	81.2	81.2	85.3	72	71.3	1	3	248	0.00	29.757 
10:45	80.9	80.9	85.0	73	71.4	1	4	248	0.00	29.756 
10:50	80.9	80.9	85.0	73	71.4	0	2	270	0.00	29.757 
10:55	81.1	81.1	85.5	74	72.0	1	5	248	0.00	29.759 
11:00	80.9	80.9	85.1	74	71.8	1	3	248	0.00	29.759 
11:05	81.1	81.1	85.7	75	72.4	1	4	45	0.00	29.761 
11:10	81.2	81.2	85.7	74	72.1	1	3	270	0.00	29.762 
11:15	81.1	81.1	85.7	75	72.4	1	3	270	0.00	29.759 
11:20	81.2	81.2	85.9	75	72.5	1	3	270	0.00	29.759 
11:25	81.1	81.1	85.5	74	72.0	1	3	270	0.00	29.761 
11:30	80.9	80.9	85.1	74	71.8	1	4	270	0.00	29.762 
11:35	81.1	81.1	85.7	75	72.4	1	2	270	0.00	29.760 
11:40	81.4	81.4	86.1	74	72.3	1	3	270	0.00	29.758 
11:45	82.0	82.0	87.1	73	72.5	1	4	270	0.00	29.756 
11:50	82.2	82.2	87.3	72	72.2	1	3	270	0.00	29.757 
11:55	83.2	83.2	89.1	71	72.8	1	2	270	0.00	29.752 
12:00	83.4	83.4	89.2	70	72.6	1	2	270	0.00	29.752 
12:05	83.4	83.4	89.2	70	72.6	0	2	270	0.00	29.752 
12:10	83.8	83.8	89.7	69	72.5	1	3	270	0.00	29.748 
12:15	84.1	84.1	90.0	68	72.4	1	3	270	0.00	29.745 
12:20	84.1	84.1	89.7	67	71.9	1	3	292	0.00	29.743 
12:25	83.8	83.8	88.8	66	71.2	2	3	292	0.00	29.741 
12:30	84.3	84.3	90.1	67	72.1	1	3	248	0.00	29.736 
12:35	84.9	84.9	90.4	64	71.3	2	4	248	0.00	29.736 
12:40	85.1	85.1	90.4	63	71.1	2	4	292	0.00	29.736 
12:45	85.5	85.5	90.5	61	70.5	1	3	270	0.00	29.733 
12:50	85.5	85.5	90.8	62	71.0	1	4	248	0.00	29.733 
12:55	85.7	85.7	90.9	61	70.7	1	3	248	0.00	29.733 
13:00	85.7	85.7	90.5	60	70.2	1	5	270	0.00	29.733 
13:05	86.3	86.3	91.7	60	70.7	2	4	248	0.00	29.734 
13:10	87.0	87.0	93.5	61	71.9	1	2	292	0.00	29.730 
13:15	87.4	87.4	91.9	55	69.2	1	4	292	0.00	29.727 
13:20	87.4	87.4	91.9	55	69.2	1	3	270	0.00	29.727 
13:25	87.6	87.6	91.5	53	68.3	2	4	270	0.00	29.726 
13:30	87.4	87.4	91.5	54	68.7	2	4	248	0.00	29.723 
13:35	87.4	87.4	91.9	55	69.2	2	5	292	0.00	29.720 
13:40	88.0	88.0	93.0	55	69.8	1	3	248	0.00	29.717 
13:45	88.2	88.2	92.1	52	68.3	2	4	292	0.00	29.709 
13:50	88.6	88.6	91.7	49	67.0	3	5	270	0.00	29.706 
13:55	88.6	88.6	92.1	50	67.5	2	3	270	0.00	29.705 
14:00	89.0	89.0	92.0	48	66.7	2	5	270	0.00	29.707 
14:05	89.3	89.3	93.3	50	68.2	1	3	292	0.00	29.704 
14:10	89.7	89.7	93.2	48	67.4	2	5	270	0.00	29.701 
14:15	89.7	89.7	92.8	47	66.7	2	5	270	0.00	29.694 
14:20	89.5	89.5	92.4	47	66.6	3	6	248	0.00	29.690 
14:25	89.9	89.9	92.7	46	66.3	2	6	270	0.00	29.691 
14:30	89.5	89.5	93.2	49	67.8	2	4	270	0.00	29.693 
14:35	89.5	89.5	92.8	48	67.2	3	6	270	0.00	29.693 
14:40	89.9	89.9	93.1	47	66.9	3	6	270	0.00	29.691 
14:45	89.9	89.9	93.1	47	66.9	2	4	315	0.00	29.695 
14:50	90.1	90.1	93.9	48	67.7	2	5	270	0.00	29.702 
14:55	89.9	89.9	93.5	48	67.5	2	4	270	0.00	29.700 
15:00	89.5	89.5	93.2	49	67.8	1	3	315	0.00	29.697 
15:05	89.3	89.3	93.3	50	68.2	1	3	248	0.00	29.698 
15:10	88.4	88.4	91.0	48	66.2	3	9	248	0.00	29.707 
15:15	83.2	83.2	85.3	56	65.8	3	12	292	0.00	29.721 
15:20	81.1	81.1	83.6	63	67.3	1	4	338	0.00	29.713 
15:25	81.2	81.2	83.5	61	66.4	1	4	90	0.00	29.709 
15:30	82.4	82.4	84.2	56	65.1	1	4	90	0.00	29.713 
15:35	83.2	83.2	85.3	56	65.8	1	4	292	0.00	29.724 
15:40	82.2	82.2	83.6	54	63.9	2	4	338	0.00	29.714 
15:45	81.8	81.8	82.8	52	62.4	1	3	292	0.00	29.719 
15:50	80.7	80.7	82.0	55	63.0	2	4	315	0.00	29.719 
15:55	79.2	79.2	80.7	58	63.1	2	6	270	0.00	29.712 
16:00	77.9	77.9	79.7	65	65.2	1	4	0	0.00	29.710 
16:05	76.8	76.8	78.5	71	66.7	1	4	0	0.02	29.699 
16:10	76.5	76.5	77.9	78	69.1	1	3	315	0.08	29.707 
16:15	75.6	75.6	76.1	83	70.1	1	3	45	0.17	29.715 
16:20	74.0	74.0	74.0	86	69.5	3	7	270	0.17	29.734 
16:25	71.1	71.1	71.1	84	66.0	4	14	315	0.23	29.740 
16:30	70.8	70.8	70.8	85	66.1	3	11	292	0.12	29.732 
16:35	70.8	70.8	70.8	89	67.4	0	3	90	0.05	29.732 
16:40	70.8	70.8	70.8	90	67.7	0	1	90	0.03	29.732 
16:45	70.8	70.8	70.8	91	68.0	0	3	90	0.03	29.714 
16:50	70.8	70.8	70.8	92	68.4	0	2	90	0.03	29.714 
16:55	69.6	69.6	69.6	89	66.2	0	3	248	0.00	29.714 
17:00	69.4	69.4	69.4	89	66.0	0	1	248	0.01	29.713 
17:05	69.8	69.8	69.8	90	66.7	1	3	248	0.00	29.713 
17:10	70.1	70.1	70.1	92	67.7	0	1	248	0.00	29.713 
17:15	70.6	70.6	70.6	92	68.2	0	1	248	0.00	29.716 
17:20	70.9	70.9	70.9	93	68.8	0	0	---	0.00	29.716 
17:25	71.3	71.3	71.3	94	69.5	0	1	248	0.00	29.716 
17:30	71.8	71.8	71.8	94	70.0	0	1	248	0.00	29.709 
17:35	72.5	72.5	72.5	94	70.7	0	2	248	0.00	29.709 
17:40	72.8	72.8	72.8	93	70.7	0	1	202	0.00	29.709 
17:45	73.0	73.0	73.0	93	70.8	0	0	---	0.00	29.698 
17:50	73.0	73.0	73.0	93	70.8	0	1	202	0.00	29.698 
17:55	73.2	73.2	73.2	94	71.4	0	0	---	0.01	29.698 
18:00	73.3	73.3	73.3	94	71.5	0	0	---	0.00	29.700 
18:05	73.5	73.5	73.5	94	71.7	0	0	---	0.00	29.700 
18:10	73.7	73.7	73.7	94	71.9	0	1	202	0.00	29.700 
18:15	73.7	73.7	73.7	94	71.9	0	1	202	0.00	29.696 
18:20	73.7	73.7	73.7	94	71.9	0	1	202	0.00	29.696 
18:25	73.9	73.9	73.9	94	72.1	0	1	202	0.00	29.696 
18:30	73.5	73.5	73.5	93	71.3	1	2	202	0.00	29.713 
18:35	73.2	73.2	73.2	92	70.7	1	2	225	0.00	29.713 
18:40	73.2	73.2	73.2	92	70.7	0	1	292	0.00	29.713 
18:45	73.0	73.0	73.0	92	70.5	0	2	292	0.00	29.715 
18:50	72.8	72.8	72.8	91	70.0	0	2	292	0.00	29.715 
18:55	72.7	72.7	72.7	90	69.6	1	3	292	0.00	29.715 
19:00	72.7	72.7	72.7	89	69.3	1	2	292	0.00	29.715 
19:05	72.7	72.7	72.7	89	69.3	0	3	270	0.00	29.715 
19:10	72.8	72.8	72.8	89	69.4	0	2	270	0.00	29.715 
19:15	72.8	72.8	72.8	88	69.0	0	2	270	0.00	29.713 
19:20	72.8	72.8	72.8	88	69.0	0	2	270	0.00	29.713 
19:25	72.8	72.8	72.8	87	68.7	0	2	270	0.00	29.713 
19:30	72.8	72.8	72.8	87	68.7	0	2	270	0.00	29.710 
19:35	72.8	72.8	72.8	87	68.7	0	1	270	0.00	29.710 
19:40	72.8	72.8	72.8	87	68.7	0	1	270	0.00	29.710 
19:45	72.7	72.7	72.7	87	68.6	0	1	270	0.00	29.695 
19:50	72.7	72.7	72.7	87	68.6	0	0	---	0.00	29.695 
19:55	72.7	72.7	72.7	88	68.9	0	1	270	0.00	29.695 
20:00	72.5	72.5	72.5	88	68.7	0	1	270	0.00	29.695 
20:05	72.1	72.1	72.1	88	68.3	0	1	270	0.00	29.695 
20:10	72.1	72.1	72.1	89	68.7	0	1	270	0.00	29.695 
20:15	72.0	72.0	72.0	89	68.6	0	1	270	0.00	29.696 
20:20	71.8	71.8	71.8	90	68.7	0	2	270	0.00	29.696 
20:25	71.8	71.8	71.8	89	68.4	1	3	270	0.00	29.696 
20:30	72.0	72.0	72.0	88	68.2	1	2	270	0.00	29.708 
20:35	71.8	71.8	71.8	88	68.0	1	3	270	0.00	29.708 
20:40	71.8	71.8	71.8	86	67.4	0	3	248	0.00	29.708 
20:45	71.6	71.6	71.6	86	67.2	0	1	248	0.00	29.711 
20:50	71.6	71.6	71.6	86	67.2	0	2	248	0.00	29.711 
20:55	71.3	71.3	71.3	87	67.2	0	0	---	0.00	29.711 
21:00	71.3	71.3	71.3	87	67.2	0	1	248	0.00	29.715 
21:05	71.1	71.1	71.1	87	67.0	0	1	248	0.00	29.715 
21:10	70.9	70.9	70.9	88	67.2	0	1	248	0.00	29.715 
21:15	70.9	70.9	70.9	88	67.2	0	1	248	0.00	29.719 
21:20	70.8	70.8	70.8	87	66.7	0	3	248	0.00	29.719 
21:25	70.8	70.8	70.8	87	66.7	0	1	248	0.00	29.719 
21:30	70.8	70.8	70.8	87	66.7	0	1	248	0.00	29.717 
21:35	70.8	70.8	70.8	88	67.1	0	1	248	0.00	29.717 
21:40	70.6	70.6	70.6	88	66.9	0	1	248	0.00	29.717 
21:45	70.6	70.6	70.6	88	66.9	0	1	248	0.00	29.725 
21:50	70.6	70.6	70.6	88	66.9	0	1	248	0.00	29.725 
21:55	70.6	70.6	70.6	88	66.9	0	1	248	0.00	29.725 
22:00	70.6	70.6	70.6	88	66.9	0	1	248	0.00	29.727 
22:05	70.4	70.4	70.4	88	66.7	0	1	248	0.00	29.727 
22:10	70.4	70.4	70.4	89	67.0	0	1	248	0.00	29.727 
22:15	70.4	70.4	70.4	89	67.0	0	0	---	0.00	29.725 
22:20	70.3	70.3	70.3	89	66.9	0	0	---	0.00	29.725 
22:25	70.1	70.1	70.1	89	66.7	0	0	---	0.00	29.725 
22:30	69.9	69.9	69.9	90	66.8	0	1	248	0.00	29.725 
22:35	69.8	69.8	69.8	90	66.7	0	0	---	0.00	29.725 
22:40	69.6	69.6	69.6	90	66.5	0	0	---	0.00	29.725 
22:45	69.4	69.4	69.4	91	66.7	0	0	---	0.00	29.724 
22:50	69.4	69.4	69.4	91	66.7	0	0	---	0.00	29.724 
22:55	69.3	69.3	69.3	92	66.9	0	0	---	0.00	29.724 
23:00	69.1	69.1	69.1	92	66.7	0	0	---	0.00	29.723 
23:05	69.1	69.1	69.1	92	66.7	0	0	---	0.00	29.723 
23:10	69.1	69.1	69.1	92	66.7	0	0	---	0.00	29.723 
23:15	69.1	69.1	69.1	93	67.0	0	0	---	0.00	29.723 
23:20	69.1	69.1	69.1	93	67.0	0	1	248	0.00	29.723 
23:25	69.4	69.4	69.4	93	67.3	0	1	248	0.00	29.723 
23:30	69.4	69.4	69.4	93	67.3	0	0	---	0.00	29.718 
23:35	69.3	69.3	69.3	93	67.2	0	0	---	0.00	29.718 
23:40	69.3	69.3	69.3	93	67.2	0	0	---	0.00	29.718 
23:45	69.3	69.3	69.3	93	67.2	0	0	---	0.00	29.722 
23:50	69.3	69.3	69.3	93	67.2	0	1	248	0.00	29.722 
23:55	69.6	69.6	69.6	93	67.5	0	1	248	0.00	29.722 

CoCoRaHS
IN-AL-39
A2 Web Hosting
Creative Commons License
GoDaddy
Look for:

loaded 2017-10-18 22:00:37 • last modified 2010-11-18 10:43:29
Privacy PolicyDisclaimer
• wx.awcolley.com is powered by PmWiki v.2002016 •
• all content (unless otherwise noted) © 2017 A W Colley